の過去48時間の天気

Trondheim / Vaernes

現在時刻: 9/28 10:46 CEST (9/28 08:46 UTC) 以下の時間は現地時間です。

過去48時間のMETAR気象情報
時間 風向 風速(m/s) 視程 気温(℃) 湿度(%) 気圧(hPa) 天気現象
28 10:20 2 10km以上 15 77 1013
28 09:50 3 10km以上 14 82 1013
28 09:20 3 10km以上 13 88 1013
28 08:50 2 10km以上 12 88 1013
28 08:20 東南東 3 10km以上 12 88 1013
28 07:50 3 10km以上 13 82 1013
28 07:20 東南東 3 10km以上 12 88 1013
28 06:50 3 10km以上 12 88 1013
28 06:20 東南東 4 10km以上 13 82 1013
28 05:50 東南東 3 10km以上 14 77 1013
28 05:20 4 10km以上 13 82 1013
28 04:20 4 10km以上 13 82 1013
28 03:50 東南東 3 10km以上 14 77 1014
28 02:50 2 10km以上 14 77 1014
28 02:20 東南東 2 10km以上 12 88 1014
28 01:50 東南東 2 10km以上 13 82 1014
28 01:20 4 10km以上 12 88 1014
28 00:50 4 10km以上 13 82 1015
28 00:20 3 10km以上 13 82 1015
27 23:50 4 10km以上 13 82 1015
27 23:20 5 10km以上 13 82 1015
27 22:50 5 10km以上 14 77 1014
27 22:20 5 10km以上 14 77 1014
27 21:50 6 10km以上 14 77 1014
27 21:20 5 10km以上 15 77 1014
27 20:50 4 10km以上 15 72 1014
27 20:20 5 10km以上 15 77 1014
27 19:50 5 10km以上 15 72 1014
27 19:20 6 10km以上 14 77 1014
27 18:50 5 10km以上 14 77 1014
27 18:20 5 10km以上 14 77 1014
27 17:50 5 10km以上 14 77 1014
27 17:20 4 10km以上 14 72 1014
27 16:50 4 10km以上 14 72 1015
27 16:20 4 10km以上 14 67 1015
27 15:50 5 10km以上 14 67 1015
27 15:20 5 10km以上 13 72 1015
27 14:50 東北東 3 10km以上 14 67 1015
27 14:20 4 10km以上 13 72 1016
27 13:50 3 10km以上 13 72 1016
27 13:20 4 10km以上 13 67 1016
27 12:50 5 10km以上 13 67 1016
27 12:20 5 10km以上 12 71 1016
27 11:50 東北東 6 10km以上 12 67 1016
27 11:20 5 10km以上 11 71 1017
27 10:50 5 10km以上 11 71 1017
27 10:20 東南東 2 10km以上 11 71 1017
27 09:50 南東 3 10km以上 10 76 1018
27 09:20 南東 2 10km以上 9 81 1018
27 08:50 南東 3 10km以上 7 93 1018
27 08:20 東南東 3 10km以上 7 87 1018
27 07:50 東南東 2 10km以上 6 93 1018
27 07:20 南南東 2 10km以上 6 93 1019
27 06:50 不定 2 10km以上 7 87 1019
27 06:20 東南東 2 10km以上 8 81 1019
27 05:50 南東 2 10km以上 8 81 1019
27 05:20 南東 3 10km以上 8 87 1019
27 04:50 南東 2 10km以上 8 81 1019
27 03:50 南東 2 10km以上 8 81 1019
27 02:50 1 10km以上 6 93 1020
27 01:50 静穏 0 10km以上 7 87 1020
27 00:50 不定 1 10km以上 7 93 1020
26 23:50 2 10km以上 6 100 1020
26 22:50 不定 1 10km以上 6 100 1020
26 22:20 2 10km以上 6 100 1020
26 21:50 2 10km以上 7 93 1020
26 21:20 不定 1 10km以上 7 87 1020 弱い霧雨
26 20:50 不定 1 10km以上 7 87 1020
26 20:20 静穏 0 10km以上 7 93 1020
26 19:50 南南東 2 10km以上 7 93 1020
26 19:20 南南東 2 10km以上 8 81 1019
26 18:50 西南西 2 10km以上 8 81 1019
26 18:20 西南西 2 10km以上 8 76 1019
26 17:50 南西 1 10km以上 8 76 1018 周辺でしゅう雨
26 17:20 南西 2 10km以上 8 81 1018 弱い雨
26 16:50 南西 2 10km以上 8 76 1018 弱い霧雨
26 16:20 西南西 2 10km以上 8 76 1018
26 15:50 西 2 10km以上 8 76 1018
26 15:20 不定 1 10km以上 8 71 1017
26 14:50 不定 2 10km以上 8 71 1017
26 14:20 不定 1 10km以上 8 76 1017
26 13:50 3 10km以上 8 71 1017
26 13:20 静穏 0 10km以上 8 71 1017
26 12:50 不定 1 10km以上 8 71 1017
26 12:20 不定 2 10km以上 7 76 1016
26 11:50 2 10km以上 7 76 1016
26 11:20 3 10km以上 7 76 1016
26 10:50 3 10km以上 7 76 1016
ENVA 280820Z 08004KT 050V110 CAVOK 15/11 Q1013 NOSIG RMK WIND 670FT 15015KT
ENVA 280750Z 09005KT CAVOK 14/11 Q1013 NOSIG RMK WIND 670FT 15013KT
ENVA 280720Z 09005KT CAVOK 13/11 Q1013 NOSIG RMK WIND 670FT 15011KT
ENVA 280650Z 10004KT 9999 FEW130 SCT210 12/10 Q1013 NOSIG RMK WIND 670FT 15010KT
ENVA 280620Z 12005KT CAVOK 12/10 Q1013 NOSIG RMK WIND 670FT 15008KT
ENVA 280550Z 09005KT CAVOK 13/10 Q1013 NOSIG RMK WIND 670FT 14008KT
ENVA 280520Z 11006KT CAVOK 12/10 Q1013 NOSIG RMK WIND 670FT 14012KT
ENVA 280450Z 10006KT CAVOK 12/10 Q1013 NOSIG RMK WIND 670FT 12005KT
ENVA 280420Z 11007KT CAVOK 13/10 Q1013 RMK WIND 670FT 09003KT
ENVA 280350Z 11006KT 090V150 CAVOK 14/10 Q1013 RMK WIND 670FT 15006KT
ENVA 280320Z 09008KT CAVOK 13/10 Q1013 RMK WIND 670FT 11005KT
ENVA 280220Z 09008KT CAVOK 13/10 Q1013 RMK WIND 670FT 12005KT
ENVA 280150Z 12006KT 080V150 CAVOK 14/10 Q1014 RMK WIND 670FT 11006KT
ENVA 280050Z 08004KT CAVOK 14/10 Q1014 RMK WIND 670FT 13006KT
ENVA 280020Z 11003KT CAVOK 12/10 Q1014 RMK WIND 670FT 14004KT
ENVA 272350Z 11004KT 090V140 CAVOK 13/10 Q1014 RMK WIND 670FT 09005KT
ENVA 272320Z 08007KT CAVOK 12/10 Q1014 RMK WIND 670FT 10007KT
ENVA 272250Z 09008KT CAVOK 13/10 Q1015 RMK WIND 670FT 14004KT
ENVA 272220Z 09006KT CAVOK 13/10 Q1015 RMK WIND 670FT 10005KT
ENVA 272150Z 09007KT CAVOK 13/10 Q1015 RMK WIND 670FT 13009KT
ENVA 272120Z 08009KT CAVOK 13/10 Q1015 RMK WIND 670FT 12010KT
ENVA 272050Z 09010KT CAVOK 14/10 Q1014 RMK WIND 670FT 12009KT
ENVA 272020Z 09009KT 9999 BKN092 BKN110 14/10 Q1014 RMK WIND 670FT 11009KT
ENVA 271950Z 10012KT CAVOK 14/10 Q1014 RMK WIND 670FT 12010KT
ENVA 271920Z 10009KT CAVOK 15/11 Q1014 RMK WIND 670FT 13006KT
ENVA 271850Z 08008KT CAVOK 15/10 Q1014 RMK WIND 670FT 13011KT
ENVA 271820Z 08009KT CAVOK 15/11 Q1014 RMK WIND 670FT 11007KT
ENVA 271750Z 10010KT CAVOK 15/10 Q1014 RMK WIND 670FT 12010KT
ENVA 271720Z 10011KT CAVOK 14/10 Q1014 RMK WIND 670FT 10011KT
ENVA 271650Z 09010KT CAVOK 14/10 Q1014 RMK WIND 670FT 09011KT
ENVA 271620Z 08010KT CAVOK 14/10 Q1014 RMK WIND 670FT 11010KT
ENVA 271550Z 09009KT CAVOK 14/10 Q1014 RMK WIND 670FT 14013KT
ENVA 271520Z 10007KT CAVOK 14/09 Q1014 RMK WIND 670FT 10008KT
ENVA 271450Z 08007KT CAVOK 14/09 Q1015 RMK WIND 670FT 09006KT
ENVA 271420Z 09007KT CAVOK 14/08 Q1015 RMK WIND 670FT 12009KT
ENVA 271350Z 09009KT CAVOK 14/08 Q1015 NOSIG RMK WIND 670FT 09011KT
ENVA 271320Z 10009KT CAVOK 13/08 Q1015 NOSIG RMK WIND 670FT 10009KT
ENVA 271250Z 07005KT 040V100 CAVOK 14/08 Q1015 NOSIG RMK WIND 670FT 10009KT
ENVA 271220Z 08007KT CAVOK 13/08 Q1016 NOSIG RMK WIND 670FT 10007KT
ENVA 271150Z 08006KT 050V120 CAVOK 13/08 Q1016 NOSIG RMK WIND 670FT 11008KT
ENVA 271120Z 09007KT CAVOK 13/07 Q1016 NOSIG RMK WIND 670FT 10009KT
ENVA 271050Z 09009KT CAVOK 13/07 Q1016 NOSIG RMK WIND 670FT 09008KT
ENVA 271020Z 09009KT CAVOK 12/07 Q1016 NOSIG RMK WIND 670FT 10010KT
ENVA 270950Z 07011KT 030V090 CAVOK 12/06 Q1016 NOSIG RMK WIND 670FT 12008KT
ENVA 270920Z 09010KT CAVOK 11/06 Q1017 NOSIG RMK WIND 670FT 10011KT
ENVA 270850Z 08009KT CAVOK 11/06 Q1017 NOSIG RMK WIND 670FT 09013KT
ENVA 270820Z 11004KT CAVOK 11/06 Q1017 NOSIG RMK WIND 670FT 09006KT
ENVA 270750Z 13005KT CAVOK 10/06 Q1018 NOSIG RMK WIND 670FT 10009KT
ENVA 270720Z 13004KT CAVOK 09/06 Q1018 NOSIG RMK WIND 670FT 09008KT
ENVA 270650Z 13006KT CAVOK 07/06 Q1018 NOSIG RMK WIND 670FT 10009KT
ENVA 270620Z 12005KT CAVOK 07/05 Q1018 NOSIG RMK WIND 670FT 10008KT
ENVA 270550Z 11004KT CAVOK 06/05 Q1018 NOSIG RMK WIND 670FT 11007KT
ENVA 270520Z 15004KT 9999 FEW048 SCT078 BKN098 06/05 Q1019 NOSIG RMK WIND 670FT 10006KT
ENVA 270450Z VRB03KT 9999 FEW048 BKN074 07/05 Q1019 NOSIG RMK WIND 670FT 09007KT
ENVA 270420Z 12004KT CAVOK 08/05 Q1019 RMK WIND 670FT 07008KT
ENVA 270350Z 13004KT 9999 FEW055 BKN070 08/05 Q1019 RMK WIND 670FT 10007KT
ENVA 270320Z 14005KT 9999 OVC061 08/06 Q1019 RMK WIND 670FT 11007KT
ENVA 270250Z 13004KT 9999 OVC061 08/05 Q1019 RMK WIND 670FT 11007KT
ENVA 270150Z 13004KT 9999 OVC061 08/05 Q1019 RMK WIND 670FT 09010KT
ENVA 270050Z 08002KT 9999 SCT062 BKN094 06/05 Q1020 RMK WIND 670FT 09012KT
ENVA 262350Z 00000KT 9999 SCT036 OVC055 07/05 Q1020 RMK WIND 670FT 09011KT
ENVA 262250Z VRB02KT 9999 OVC062 07/06 Q1020 RMK WIND 670FT 08009KT
ENVA 262150Z 10004KT 9999 BKN062 06/06 Q1020 RMK WIND 670FT 07006KT
ENVA 262050Z VRB02KT 9999 SCT068 OVC096 06/06 Q1020 RMK WIND 670FT 06004KT
ENVA 262020Z 10003KT 9999 SCT068 OVC096 06/06 Q1020 RMK WIND 670FT 06003KT
ENVA 261950Z 10003KT 9999 FEW038 BKN068 07/06 Q1020 RMK WIND 670FT VRB02KT
ENVA 261920Z VRB02KT 9999 -DZ FEW040 BKN068 07/05 Q1020 RMK WIND 670FT 07002KT
ENVA 261850Z VRB02KT 9999 FEW051 BKN080 07/05 Q1020 RMK WIND 670FT 00000KT
ENVA 261820Z 00000KT 9999 SCT051 BKN077 07/06 Q1020 RMK WIND 670FT 00000KT
ENVA 261750Z 15003KT 9999 FEW044 SCT052 BKN094 07/06 Q1020 RMK WIND 670FT 00000KT
ENVA 261720Z 16003KT 9999 FEW043 BKN052 08/05 Q1019 RMK WIND 670FT VRB01KT
ENVA 261650Z 24004KT 9999 SCT047 BKN090 08/05 Q1019 RMK WIND 670FT 00000KT
ENVA 261620Z 25004KT 9999 SCT053 BKN080 08/04 Q1019 RMK WIND 670FT 00000KT
ENVA 261550Z 23002KT 9999 VCSH FEW033 BKN048 08/04 Q1018 RMK WIND 670FT VRB01KT
ENVA 261520Z 23004KT 160V240 9999 -RA BKN038 08/05 Q1018 RMK WIND 670FT 00000KT
ENVA 261450Z 23003KT 9999 -DZ FEW051 BKN069 08/04 Q1018 RMK WIND 670FT VRB03KT
ENVA 261420Z 25003KT 9999 FEW051 BKN069 08/04 Q1018 RMK WIND 670FT 28005KT
ENVA 261350Z 27004KT 9999 FEW051 BKN069 08/04 Q1018 RMK WIND 670FT VRB02KT
ENVA 261320Z VRB02KT 9999 FEW051 BKN069 08/03 Q1017 NOSIG RMK WIND 670FT VRB02KT
ENVA 261250Z VRB03KT 9999 SCT051 BKN072 08/03 Q1017 NOSIG RMK WIND 670FT VRB02KT
ENVA 261220Z VRB02KT 9999 BKN049 08/04 Q1017 NOSIG RMK WIND 670FT 05003KT
ENVA 261150Z 08005KT 050V110 9999 BKN053 08/03 Q1017 NOSIG RMK WIND 670FT 06004KT
ENVA 261120Z 00000KT 9999 FEW030 BKN056 08/03 Q1017 NOSIG RMK WIND 670FT VRB02KT
ENVA 261050Z VRB02KT 9999 FEW020 BKN055 08/03 Q1017 NOSIG RMK WIND 670FT VRB03KT
ENVA 261020Z VRB03KT 9999 FEW020 SCT059 07/03 Q1016 NOSIG RMK WIND 670FT VRB02KT
ENVA 260950Z 08003KT 010V130 9999 FEW020 SCT064 07/03 Q1016 NOSIG RMK WIND 670FT 00000KT
ENVA 260920Z 08006KT 040V110 9999 FEW020 SCT070 07/03 Q1016 NOSIG RMK WIND 670FT VRB02KT
ENVA 260850Z 08006KT 020V100 9999 FEW020 SCT070 07/03 Q1016 NOSIG RMK WIND 670FT 05006KT